sensor_id;sensor_type;location;lat;lon;timestamp;pressure;altitude;pressure_sealevel;temperature;humidity
12178;BME280;6152;48.728;9.256;2022-11-25T00:01:06;97009.59;;;1.78;100.00
12178;BME280;6152;48.728;9.256;2022-11-25T00:03:32;97018.09;;;1.80;100.00
12178;BME280;6152;48.728;9.256;2022-11-25T00:08:43;97009.50;;;1.81;100.00
12178;BME280;6152;48.728;9.256;2022-11-25T00:11:10;97006.06;;;1.82;100.00
12178;BME280;6152;48.728;9.256;2022-11-25T00:13:38;97012.06;;;1.81;100.00
12178;BME280;6152;48.728;9.256;2022-11-25T00:16:06;97009.50;;;1.81;100.00
12178;BME280;6152;48.728;9.256;2022-11-25T00:18:33;97011.28;;;1.79;100.00
12178;BME280;6152;48.728;9.256;2022-11-25T00:21:08;97006.25;;;1.76;100.00
12178;BME280;6152;48.728;9.256;2022-11-25T00:23:35;97004.66;;;1.72;100.00
12178;BME280;6152;48.728;9.256;2022-11-25T00:26:10;97003.03;;;1.68;100.00
12178;BME280;6152;48.728;9.256;2022-11-25T00:28:37;97007.34;;;1.66;100.00
12178;BME280;6152;48.728;9.256;2022-11-25T00:31:05;97007.59;;;1.58;100.00
12178;BME280;6152;48.728;9.256;2022-11-25T00:33:31;97009.41;;;1.55;100.00
12178;BME280;6152;48.728;9.256;2022-11-25T00:36:00;97006.06;;;1.51;100.00
12178;BME280;6152;48.728;9.256;2022-11-25T00:38:27;97007.88;;;1.47;100.00
12178;BME280;6152;48.728;9.256;2022-11-25T00:40:53;97009.69;;;1.44;100.00
12178;BME280;6152;48.728;9.256;2022-11-25T00:43:39;97017.41;;;1.42;100.00
12178;BME280;6152;48.728;9.256;2022-11-25T00:46:24;97010.56;;;1.41;100.00
12178;BME280;6152;48.728;9.256;2022-11-25T00:48:50;97008.00;;;1.41;100.00
12178;BME280;6152;48.728;9.256;2022-11-25T00:51:16;97004.56;;;1.42;100.00
12178;BME280;6152;48.728;9.256;2022-11-25T00:53:43;97013.97;;;1.43;100.00
12178;BME280;6152;48.728;9.256;2022-11-25T00:56:09;97013.00;;;1.47;100.00
12178;BME280;6152;48.728;9.256;2022-11-25T00:58:42;97006.97;;;1.48;100.00
12178;BME280;6152;48.728;9.256;2022-11-25T01:01:09;97018.03;;;1.50;100.00
12178;BME280;6152;48.728;9.256;2022-11-25T01:03:35;97005.22;;;1.50;100.00
12178;BME280;6152;48.728;9.256;2022-11-25T01:06:07;97007.72;;;1.52;100.00
12178;BME280;6152;48.728;9.256;2022-11-25T01:08:36;97016.28;;;1.52;100.00
12178;BME280;6152;48.728;9.256;2022-11-25T01:11:09;97016.28;;;1.52;100.00
12178;BME280;6152;48.728;9.256;2022-11-25T01:13:36;97018.00;;;1.52;100.00
12178;BME280;6152;48.728;9.256;2022-11-25T01:16:06;97023.94;;;1.54;100.00
12178;BME280;6152;48.728;9.256;2022-11-25T01:18:33;97029.00;;;1.56;100.00
12178;BME280;6152;48.728;9.256;2022-11-25T01:21:14;97024.69;;;1.58;100.00
12178;BME280;6152;48.728;9.256;2022-11-25T01:23:41;97028.91;;;1.60;100.00
12178;BME280;6152;48.728;9.256;2022-11-25T01:26:10;97020.25;;;1.63;100.00
12178;BME280;6152;48.728;9.256;2022-11-25T01:28:37;97011.69;;;1.64;100.00
12178;BME280;6152;48.728;9.256;2022-11-25T01:31:13;97016.75;;;1.67;100.00
12178;BME280;6152;48.728;9.256;2022-11-25T01:33:40;97008.09;;;1.71;100.00
12178;BME280;6152;48.728;9.256;2022-11-25T01:36:15;97020.03;;;1.72;100.00
12178;BME280;6152;48.728;9.256;2022-11-25T01:38:43;97009.72;;;1.73;100.00
12178;BME280;6152;48.728;9.256;2022-11-25T01:41:12;97012.34;;;1.72;100.00
12178;BME280;6152;48.728;9.256;2022-11-25T01:43:39;97008.09;;;1.71;100.00
12178;BME280;6152;48.728;9.256;2022-11-25T01:46:26;97000.50;;;1.66;100.00
12178;BME280;6152;48.728;9.256;2022-11-25T01:49:02;97001.53;;;1.61;100.00
12178;BME280;6152;48.728;9.256;2022-11-25T01:54:03;97005.97;;;1.54;100.00
12178;BME280;6152;48.728;9.256;2022-11-25T01:56:36;97011.78;;;1.61;100.00
12178;BME280;6152;48.728;9.256;2022-11-25T01:59:04;97014.34;;;1.61;100.00
12178;BME280;6152;48.728;9.256;2022-11-25T02:01:30;97021.25;;;1.59;100.00
12178;BME280;6152;48.728;9.256;2022-11-25T02:03:57;97014.47;;;1.56;100.00
12178;BME280;6152;48.728;9.256;2022-11-25T02:07:09;97006.91;;;1.51;100.00
12178;BME280;6152;48.728;9.256;2022-11-25T02:09:17;97012.09;;;1.48;100.00
12178;BME280;6152;48.728;9.256;2022-11-25T02:11:44;97004.41;;;1.48;100.00
12178;BME280;6152;48.728;9.256;2022-11-25T02:14:12;96999.34;;;1.47;100.00
12178;BME280;6152;48.728;9.256;2022-11-25T02:16:39;97001.94;;;1.45;100.00
12178;BME280;6152;48.728;9.256;2022-11-25T02:19:10;97007.13;;;1.44;100.00
12178;BME280;6152;48.728;9.256;2022-11-25T02:21:48;97009.72;;;1.42;100.00
12178;BME280;6152;48.728;9.256;2022-11-25T02:24:44;97005.41;;;1.44;100.00
12178;BME280;6152;48.728;9.256;2022-11-25T02:27:11;97010.56;;;1.41;100.00
12178;BME280;6152;48.728;9.256;2022-11-25T02:29:38;97008.91;;;1.40;100.00
12178;BME280;6152;48.728;9.256;2022-11-25T02:32:05;97003.88;;;1.37;100.00
12178;BME280;6152;48.728;9.256;2022-11-25T02:34:31;97001.31;;;1.37;100.00
12178;BME280;6152;48.728;9.256;2022-11-25T02:36:58;97003.88;;;1.37;100.00
12178;BME280;6152;48.728;9.256;2022-11-25T02:39:25;96990.25;;;1.35;100.00
12178;BME280;6152;48.728;9.256;2022-11-25T02:41:55;96989.44;;;1.33;100.00
12178;BME280;6152;48.728;9.256;2022-11-25T02:44:22;96990.31;;;1.32;100.00
12178;BME280;6152;48.728;9.256;2022-11-25T02:46:49;96986.06;;;1.31;100.00
12178;BME280;6152;48.728;9.256;2022-11-25T02:49:15;96997.22;;;1.30;100.00
12178;BME280;6152;48.728;9.256;2022-11-25T02:51:45;96992.13;;;1.29;100.00
12178;BME280;6152;48.728;9.256;2022-11-25T02:54:13;96991.28;;;1.28;100.00
12178;BME280;6152;48.728;9.256;2022-11-25T02:56:40;96995.63;;;1.26;100.00
12178;BME280;6152;48.728;9.256;2022-11-25T02:59:06;96982.88;;;1.23;100.00
12178;BME280;6152;48.728;9.256;2022-11-25T03:01:33;96987.19;;;1.21;100.00
12178;BME280;6152;48.728;9.256;2022-11-25T03:04:03;96988.09;;;1.20;100.00
12178;BME280;6152;48.728;9.256;2022-11-25T03:06:29;96986.44;;;1.18;100.00
12178;BME280;6152;48.728;9.256;2022-11-25T03:08:56;96983.94;;;1.16;100.00
12178;BME280;6152;48.728;9.256;2022-11-25T03:11:23;96984.72;;;1.18;100.00
12178;BME280;6152;48.728;9.256;2022-11-25T03:14:09;96979.75;;;1.12;100.00
12178;BME280;6152;48.728;9.256;2022-11-25T03:16:35;96989.25;;;1.09;100.00
12178;BME280;6152;48.728;9.256;2022-11-25T03:19:02;96985.88;;;1.07;100.00
12178;BME280;6152;48.728;9.256;2022-11-25T03:21:28;96987.63;;;1.05;100.00
12178;BME280;6152;48.728;9.256;2022-11-25T03:23:54;96991.13;;;1.02;100.00
12178;BME280;6152;48.728;9.256;2022-11-25T03:26:20;96989.50;;;0.98;100.00
12178;BME280;6152;48.728;9.256;2022-11-25T03:28:46;96987.88;;;0.95;100.00
12178;BME280;6152;48.728;9.256;2022-11-25T03:31:12;96986.22;;;0.93;100.00
12178;BME280;6152;48.728;9.256;2022-11-25T03:33:38;96985.47;;;0.89;100.00
12178;BME280;6152;48.728;9.256;2022-11-25T03:36:05;96989.66;;;0.92;100.00
12178;BME280;6152;48.728;9.256;2022-11-25T03:38:31;96987.22;;;0.87;100.00
12178;BME280;6152;48.728;9.256;2022-11-25T03:40:57;96984.69;;;0.86;100.00
12178;BME280;6152;48.728;9.256;2022-11-25T03:43:23;96993.41;;;0.79;100.00
12178;BME280;6152;48.728;9.256;2022-11-25T03:45:49;96991.81;;;0.73;100.00
12178;BME280;6152;48.728;9.256;2022-11-25T03:48:15;96992.75;;;0.71;100.00
12178;BME280;6152;48.728;9.256;2022-11-25T03:50:41;96993.53;;;0.73;100.00
12178;BME280;6152;48.728;9.256;2022-11-25T03:53:08;96991.78;;;0.75;100.00
12178;BME280;6152;48.728;9.256;2022-11-25T03:55:34;96990.03;;;0.77;100.00
12178;BME280;6152;48.728;9.256;2022-11-25T03:58:00;96981.56;;;0.75;100.00
12178;BME280;6152;48.728;9.256;2022-11-25T04:00:26;96979.88;;;0.74;100.00
12178;BME280;6152;48.728;9.256;2022-11-25T04:02:52;96984.13;;;0.73;100.00
12178;BME280;6152;48.728;9.256;2022-11-25T04:05:18;96988.41;;;0.73;100.00
12178;BME280;6152;48.728;9.256;2022-11-25T04:07:44;96979.00;;;0.75;100.00
12178;BME280;6152;48.728;9.256;2022-11-25T04:10:11;96976.44;;;0.75;100.00
12178;BME280;6152;48.728;9.256;2022-11-25T04:12:37;96968.69;;;0.76;100.00
12178;BME280;6152;48.728;9.256;2022-11-25T04:15:16;96978.03;;;0.79;100.00
12178;BME280;6152;48.728;9.256;2022-11-25T04:17:43;96980.53;;;0.82;100.00
12178;BME280;6152;48.728;9.256;2022-11-25T04:20:11;96977.97;;;0.82;100.00
12178;BME280;6152;48.728;9.256;2022-11-25T04:22:37;96980.53;;;0.82;100.00
12178;BME280;6152;48.728;9.256;2022-11-25T04:25:04;96980.44;;;0.85;100.00
12178;BME280;6152;48.728;9.256;2022-11-25T04:27:31;96974.50;;;0.83;100.00
12178;BME280;6152;48.728;9.256;2022-11-25T04:29:57;96983.09;;;0.82;100.00
12178;BME280;6152;48.728;9.256;2022-11-25T04:32:23;96973.72;;;0.81;100.00
12178;BME280;6152;48.728;9.256;2022-11-25T04:34:49;96978.84;;;0.81;100.00
12178;BME280;6152;48.728;9.256;2022-11-25T04:37:15;96972.88;;;0.80;100.00
12178;BME280;6152;48.728;9.256;2022-11-25T04:39:42;96972.03;;;0.80;100.00
12178;BME280;6152;48.728;9.256;2022-11-25T04:42:08;96971.22;;;0.78;100.00
12178;BME280;6152;48.728;9.256;2022-11-25T04:44:52;96979.69;;;0.81;100.00
12178;BME280;6152;48.728;9.256;2022-11-25T04:47:18;96970.38;;;0.79;100.00
12178;BME280;6152;48.728;9.256;2022-11-25T04:49:44;96985.66;;;0.80;100.00
12178;BME280;6152;48.728;9.256;2022-11-25T04:52:10;96987.38;;;0.81;100.00
12178;BME280;6152;48.728;9.256;2022-11-25T04:54:37;96988.97;;;0.85;100.00
12178;BME280;6152;48.728;9.256;2022-11-25T04:57:03;96992.25;;;0.90;100.00
12178;BME280;6152;48.728;9.256;2022-11-25T04:59:29;96985.41;;;0.91;100.00
12178;BME280;6152;48.728;9.256;2022-11-25T05:04:38;96978.72;;;0.85;100.00
12178;BME280;6152;48.728;9.256;2022-11-25T05:07:04;96982.19;;;0.83;100.00
12178;BME280;6152;48.728;9.256;2022-11-25T05:09:30;96980.56;;;0.80;100.00
12178;BME280;6152;48.728;9.256;2022-11-25T05:11:56;96981.50;;;0.76;100.00
12178;BME280;6152;48.728;9.256;2022-11-25T05:14:22;96986.69;;;0.75;100.00
12178;BME280;6152;48.728;9.256;2022-11-25T05:16:50;96991.88;;;0.72;100.00
12178;BME280;6152;48.728;9.256;2022-11-25T05:19:16;96997.00;;;0.72;100.00
12178;BME280;6152;48.728;9.256;2022-11-25T05:21:42;96998.72;;;0.70;100.00
12178;BME280;6152;48.728;9.256;2022-11-25T05:24:09;96995.47;;;0.65;100.00
12178;BME280;6152;48.728;9.256;2022-11-25T05:26:35;96998.88;;;0.64;100.00
12178;BME280;6152;48.728;9.256;2022-11-25T05:29:01;96992.13;;;0.61;100.00
12178;BME280;6152;48.728;9.256;2022-11-25T05:31:28;96987.03;;;0.60;100.00
12178;BME280;6152;48.728;9.256;2022-11-25T05:33:54;96977.72;;;0.56;100.00
12178;BME280;6152;48.728;9.256;2022-11-25T05:36:20;96985.47;;;0.52;100.00
12178;BME280;6152;48.728;9.256;2022-11-25T05:38:46;96987.25;;;0.50;100.00
12178;BME280;6152;48.728;9.256;2022-11-25T05:41:12;96979.59;;;0.49;100.00
12178;BME280;6152;48.728;9.256;2022-11-25T05:43:38;96981.31;;;0.48;100.00
12178;BME280;6152;48.728;9.256;2022-11-25T05:46:06;96990.75;;;0.46;100.00
12178;BME280;6152;48.728;9.256;2022-11-25T05:48:32;96988.19;;;0.48;100.00
12178;BME280;6152;48.728;9.256;2022-11-25T05:51:02;96998.47;;;0.45;100.00
12178;BME280;6152;48.728;9.256;2022-11-25T05:53:29;96990.81;;;0.43;100.00
12178;BME280;6152;48.728;9.256;2022-11-25T05:55:58;96997.63;;;0.44;100.00
12178;BME280;6152;48.728;9.256;2022-11-25T05:58:24;96996.75;;;0.45;100.00
12178;BME280;6152;48.728;9.256;2022-11-25T06:00:51;97000.13;;;0.47;100.00
12178;BME280;6152;48.728;9.256;2022-11-25T06:03:17;97004.41;;;0.45;100.00
12178;BME280;6152;48.728;9.256;2022-11-25T06:05:43;97008.69;;;0.45;100.00
12178;BME280;6152;48.728;9.256;2022-11-25T06:08:10;97006.09;;;0.46;100.00
12178;BME280;6152;48.728;9.256;2022-11-25T06:10:40;97011.22;;;0.46;100.00
12178;BME280;6152;48.728;9.256;2022-11-25T06:13:07;97017.97;;;0.50;100.00
12178;BME280;6152;48.728;9.256;2022-11-25T06:15:33;97025.59;;;0.52;100.00
12178;BME280;6152;48.728;9.256;2022-11-25T06:18:00;97023.88;;;0.54;100.00
12178;BME280;6152;48.728;9.256;2022-11-25T06:20:26;97023.00;;;0.55;100.00
12178;BME280;6152;48.728;9.256;2022-11-25T06:22:52;97024.78;;;0.52;100.00
12178;BME280;6152;48.728;9.256;2022-11-25T06:25:25;97025.66;;;0.49;100.00
12178;BME280;6152;48.728;9.256;2022-11-25T06:27:52;97029.06;;;0.49;100.00
12178;BME280;6152;48.728;9.256;2022-11-25T06:30:18;97028.22;;;0.49;100.00
12178;BME280;6152;48.728;9.256;2022-11-25T06:32:45;97034.28;;;0.46;100.00
12178;BME280;6152;48.728;9.256;2022-11-25T06:35:11;97033.47;;;0.44;100.00
12178;BME280;6152;48.728;9.256;2022-11-25T06:37:37;97035.13;;;0.45;100.00
12178;BME280;6152;48.728;9.256;2022-11-25T06:40:04;97038.59;;;0.44;100.00
12178;BME280;6152;48.728;9.256;2022-11-25T06:42:31;97047.13;;;0.43;100.00
12178;BME280;6152;48.728;9.256;2022-11-25T06:44:57;97045.50;;;0.41;100.00
12178;BME280;6152;48.728;9.256;2022-11-25T06:47:23;97051.41;;;0.43;100.00
12178;BME280;6152;48.728;9.256;2022-11-25T06:49:49;97053.13;;;0.42;100.00
12178;BME280;6152;48.728;9.256;2022-11-25T06:52:16;97055.69;;;0.42;100.00
12178;BME280;6152;48.728;9.256;2022-11-25T06:54:42;97057.53;;;0.36;100.00
12178;BME280;6152;48.728;9.256;2022-11-25T06:57:09;97054.06;;;0.38;100.00
12178;BME280;6152;48.728;9.256;2022-11-25T06:59:36;97055.69;;;0.42;100.00
12178;BME280;6152;48.728;9.256;2022-11-25T07:02:03;97053.19;;;0.41;100.00
12178;BME280;6152;48.728;9.256;2022-11-25T07:04:29;97063.44;;;0.39;100.00
12178;BME280;6152;48.728;9.256;2022-11-25T07:06:56;97057.44;;;0.40;100.00
12178;BME280;6152;48.728;9.256;2022-11-25T07:09:22;97058.25;;;0.42;100.00
12178;BME280;6152;48.728;9.256;2022-11-25T07:11:49;97061.50;;;0.50;100.00
12178;BME280;6152;48.728;9.256;2022-11-25T07:14:16;97067.22;;;0.62;100.00
12178;BME280;6152;48.728;9.256;2022-11-25T07:16:44;97071.97;;;0.77;100.00
12178;BME280;6152;48.728;9.256;2022-11-25T07:19:15;97070.72;;;0.94;100.00
12178;BME280;6152;48.728;9.256;2022-11-25T07:21:42;97067.66;;;1.14;100.00
12178;BME280;6152;48.728;9.256;2022-11-25T07:24:12;97074.88;;;1.34;100.00
12178;BME280;6152;48.728;9.256;2022-11-25T07:26:40;97082.22;;;1.47;100.00
12178;BME280;6152;48.728;9.256;2022-11-25T07:29:13;97076.69;;;1.63;100.00
12178;BME280;6152;48.728;9.256;2022-11-25T07:31:44;97085.63;;;1.80;100.00
12178;BME280;6152;48.728;9.256;2022-11-25T07:34:16;97085.13;;;1.98;100.00
12178;BME280;6152;48.728;9.256;2022-11-25T07:36:46;97081.34;;;2.12;100.00
12178;BME280;6152;48.728;9.256;2022-11-25T07:39:18;97086.06;;;2.27;100.00
12178;BME280;6152;48.728;9.256;2022-11-25T07:41:45;97086.63;;;2.36;100.00
12178;BME280;6152;48.728;9.256;2022-11-25T07:44:13;97088.13;;;2.43;100.00
12178;BME280;6152;48.728;9.256;2022-11-25T07:46:42;97089.22;;;2.35;100.00
12178;BME280;6152;48.728;9.256;2022-11-25T07:49:11;97099.13;;;2.18;100.00
12178;BME280;6152;48.728;9.256;2022-11-25T07:51:46;97107.78;;;2.15;100.00
12178;BME280;6152;48.728;9.256;2022-11-25T07:54:13;97108.53;;;2.19;100.00
12178;BME280;6152;48.728;9.256;2022-11-25T07:56:41;97104.66;;;2.04;100.00
12178;BME280;6152;48.728;9.256;2022-11-25T07:59:13;97115.88;;;2.00;100.00
12178;BME280;6152;48.728;9.256;2022-11-25T08:01:40;97121.19;;;1.94;100.00
12178;BME280;6152;48.728;9.256;2022-11-25T08:04:07;97116.03;;;1.94;100.00
12178;BME280;6152;48.728;9.256;2022-11-25T08:06:40;97125.44;;;1.95;100.00
12178;BME280;6152;48.728;9.256;2022-11-25T08:09:12;97111.81;;;1.93;100.00
12178;BME280;6152;48.728;9.256;2022-11-25T08:11:39;97121.06;;;1.98;100.00
12178;BME280;6152;48.728;9.256;2022-11-25T08:14:06;97123.56;;;2.00;100.00
12178;BME280;6152;48.728;9.256;2022-11-25T08:16:32;97121.72;;;2.07;100.00
12178;BME280;6152;48.728;9.256;2022-11-25T08:19:01;97128.56;;;2.06;100.00
12178;BME280;6152;48.728;9.256;2022-11-25T08:21:27;97126.91;;;2.03;100.00
12178;BME280;6152;48.728;9.256;2022-11-25T08:23:54;97129.56;;;2.00;100.00
12178;BME280;6152;48.728;9.256;2022-11-25T08:26:24;97126.13;;;2.00;100.00
12178;BME280;6152;48.728;9.256;2022-11-25T08:28:54;97126.97;;;2.02;100.00
12178;BME280;6152;48.728;9.256;2022-11-25T08:31:23;97114.91;;;2.04;100.00
12178;BME280;6152;48.728;9.256;2022-11-25T08:33:50;97116.56;;;2.07;100.00
12178;BME280;6152;48.728;9.256;2022-11-25T08:36:17;97124.97;;;2.12;100.00
12178;BME280;6152;48.728;9.256;2022-11-25T08:38:45;97130.75;;;2.20;100.00
12178;BME280;6152;48.728;9.256;2022-11-25T08:41:19;97130.38;;;2.33;100.00
12178;BME280;6152;48.728;9.256;2022-11-25T08:43:46;97126.56;;;2.46;100.00
12178;BME280;6152;48.728;9.256;2022-11-25T08:46:15;97129.63;;;2.59;100.00
12178;BME280;6152;48.728;9.256;2022-11-25T08:48:42;97131.78;;;2.73;100.00
12178;BME280;6152;48.728;9.256;2022-11-25T08:51:17;97128.91;;;2.83;100.00
12178;BME280;6152;48.728;9.256;2022-11-25T08:53:45;97125.13;;;2.95;100.00
12178;BME280;6152;48.728;9.256;2022-11-25T08:56:13;97130.81;;;3.04;100.00
12178;BME280;6152;48.728;9.256;2022-11-25T08:58:40;97133.88;;;3.17;100.00
12178;BME280;6152;48.728;9.256;2022-11-25T09:01:07;97132.50;;;3.33;100.00
12178;BME280;6152;48.728;9.256;2022-11-25T09:03:39;97130.25;;;3.49;100.00
12178;BME280;6152;48.728;9.256;2022-11-25T09:06:08;97132.69;;;3.53;100.00
12178;BME280;6152;48.728;9.256;2022-11-25T09:08:34;97137.63;;;3.60;100.00
12178;BME280;6152;48.728;9.256;2022-11-25T09:11:01;97131.19;;;3.73;100.00
12178;BME280;6152;48.728;9.256;2022-11-25T09:13:27;97137.56;;;4.12;100.00
12178;BME280;6152;48.728;9.256;2022-11-25T09:15:53;97134.00;;;4.63;100.00
12178;BME280;6152;48.728;9.256;2022-11-25T09:18:20;97150.41;;;5.28;100.00
12178;BME280;6152;48.728;9.256;2022-11-25T09:20:51;97151.06;;;6.37;100.00
12178;BME280;6152;48.728;9.256;2022-11-25T09:23:17;97149.59;;;7.08;100.00
12178;BME280;6152;48.728;9.256;2022-11-25T09:25:54;97161.59;;;7.28;100.00
12178;BME280;6152;48.728;9.256;2022-11-25T09:28:21;97150.22;;;7.49;100.00
12178;BME280;6152;48.728;9.256;2022-11-25T09:30:47;97157.38;;;7.97;100.00
12178;BME280;6152;48.728;9.256;2022-11-25T09:33:14;97157.25;;;8.34;100.00
12178;BME280;6152;48.728;9.256;2022-11-25T09:35:40;97161.03;;;8.27;100.00
12178;BME280;6152;48.728;9.256;2022-11-25T09:38:07;97164.41;;;8.29;100.00
12178;BME280;6152;48.728;9.256;2022-11-25T09:40:52;97166.50;;;8.21;100.00
12178;BME280;6152;48.728;9.256;2022-11-25T09:49:19;97171.91;;;7.65;100.00
12178;BME280;6152;48.728;9.256;2022-11-25T09:52:17;97167.09;;;7.57;100.00
12178;BME280;6152;48.728;9.256;2022-11-25T09:55:10;97164.47;;;7.40;100.00
12178;BME280;6152;48.728;9.256;2022-11-25T10:02:43;97152.81;;;6.76;100.00
12178;BME280;6152;48.728;9.256;2022-11-25T10:08:02;97159.00;;;6.53;100.00
12178;BME280;6152;48.728;9.256;2022-11-25T10:10:42;97160.16;;;6.46;100.00
12178;BME280;6152;48.728;9.256;2022-11-25T10:13:18;97162.13;;;6.41;100.00
12178;BME280;6152;48.728;9.256;2022-11-25T10:15:48;97169.34;;;6.33;100.00
12178;BME280;6152;48.728;9.256;2022-11-25T10:18:32;97171.63;;;6.20;100.00
12178;BME280;6152;48.728;9.256;2022-11-25T10:20:59;97170.56;;;6.24;100.00
12178;BME280;6152;48.728;9.256;2022-11-25T10:23:33;97172.13;;;6.28;100.00
12178;BME280;6152;48.728;9.256;2022-11-25T10:26:21;97164.75;;;6.39;100.00
12178;BME280;6152;48.728;9.256;2022-11-25T10:28:56;97173.38;;;6.58;100.00
12178;BME280;6152;48.728;9.256;2022-11-25T10:31:35;97161.34;;;6.78;100.00
12178;BME280;6152;48.728;9.256;2022-11-25T10:34:34;97170.84;;;6.96;100.00
12178;BME280;6152;48.728;9.256;2022-11-25T10:36:57;97162.47;;;7.09;100.00
12178;BME280;6152;48.728;9.256;2022-11-25T10:39:28;97172.09;;;7.25;100.00
12178;BME280;6152;48.728;9.256;2022-11-25T10:41:57;97163.97;;;7.32;100.00
12178;BME280;6152;48.728;9.256;2022-11-25T10:44:30;97175.16;;;7.51;100.00
12178;BME280;6152;48.728;9.256;2022-11-25T10:52:29;97169.72;;;9.09;100.00
12178;BME280;6152;48.728;9.256;2022-11-25T10:55:07;97169.81;;;9.23;100.00
12178;BME280;6152;48.728;9.256;2022-11-25T10:57:34;97167.47;;;9.34;100.00
12178;BME280;6152;48.728;9.256;2022-11-25T11:00:03;97172.41;;;9.23;100.00
12178;BME280;6152;48.728;9.256;2022-11-25T11:02:38;97165.94;;;8.99;100.00
12178;BME280;6152;48.728;9.256;2022-11-25T11:07:42;97172.25;;;8.78;100.00
12178;BME280;6152;48.728;9.256;2022-11-25T11:10:23;97175.22;;;8.54;100.00
12178;BME280;6152;48.728;9.256;2022-11-25T11:12:54;97181.53;;;8.49;100.00
12178;BME280;6152;48.728;9.256;2022-11-25T11:17:53;97176.00;;;8.39;100.00
12178;BME280;6152;48.728;9.256;2022-11-25T11:20:24;97178.13;;;8.31;100.00
12178;BME280;6152;48.728;9.256;2022-11-25T11:23:00;97179.13;;;8.29;100.00
12178;BME280;6152;48.728;9.256;2022-11-25T11:25:39;97185.88;;;8.14;100.00
12178;BME280;6152;48.728;9.256;2022-11-25T11:31:02;97196.09;;;8.00;100.00
12178;BME280;6152;48.728;9.256;2022-11-25T11:33:36;97194.44;;;7.99;100.00
12178;BME280;6152;48.728;9.256;2022-11-25T11:38:53;97197.78;;;8.01;100.00
12178;BME280;6152;48.728;9.256;2022-11-25T11:41:26;97201.41;;;7.97;100.00
12178;BME280;6152;48.728;9.256;2022-11-25T11:47:11;97201.13;;;8.03;100.00
12178;BME280;6152;48.728;9.256;2022-11-25T11:58:12;97216.81;;;8.17;100.00
12178;BME280;6152;48.728;9.256;2022-11-25T12:01:04;97227.13;;;8.19;100.00
12178;BME280;6152;48.728;9.256;2022-11-25T12:04:07;97235.44;;;8.25;100.00
12178;BME280;6152;48.728;9.256;2022-11-25T12:06:37;97234.97;;;8.17;100.00
12178;BME280;6152;48.728;9.256;2022-11-25T12:09:33;97238.88;;;8.08;100.00
12178;BME280;6152;48.728;9.256;2022-11-25T12:12:04;97236.63;;;8.01;100.00
12178;BME280;6152;48.728;9.256;2022-11-25T12:17:02;97234.88;;;7.84;100.00
12178;BME280;6152;48.728;9.256;2022-11-25T12:19:40;97235.56;;;7.88;100.00
12178;BME280;6152;48.728;9.256;2022-11-25T12:25:00;97245.44;;;7.80;100.00
12178;BME280;6152;48.728;9.256;2022-11-25T12:27:41;97234.16;;;7.81;100.00
12178;BME280;6152;48.728;9.256;2022-11-25T12:30:16;97238.09;;;7.71;100.00
12178;BME280;6152;48.728;9.256;2022-11-25T12:38:28;97239.91;;;7.87;100.00
12178;BME280;6152;48.728;9.256;2022-11-25T12:46:48;97237.44;;;8.20;100.00
12178;BME280;6152;48.728;9.256;2022-11-25T12:49:25;97237.97;;;8.27;100.00
12178;BME280;6152;48.728;9.256;2022-11-25T12:52:01;97244.00;;;8.27;100.00
12178;BME280;6152;48.728;9.256;2022-11-25T13:17:10;97297.03;;;8.03;100.00
12178;BME280;6152;48.728;9.256;2022-11-25T13:19:38;97308.66;;;7.94;100.00
12178;BME280;6152;48.728;9.256;2022-11-25T13:24:47;97306.56;;;7.84;100.00
12178;BME280;6152;48.728;9.256;2022-11-25T13:29:55;97317.91;;;7.62;100.00
12178;BME280;6152;48.728;9.256;2022-11-25T13:32:35;97319.66;;;7.62;100.00
12178;BME280;6152;48.728;9.256;2022-11-25T13:37:47;97329.53;;;7.54;100.00
12178;BME280;6152;48.728;9.256;2022-11-25T13:40:40;97332.28;;;7.51;100.00
12178;BME280;6152;48.728;9.256;2022-11-25T13:43:20;97328.69;;;7.53;100.00
12178;BME280;6152;48.728;9.256;2022-11-25T13:45:47;97330.53;;;7.51;100.00
12178;BME280;6152;48.728;9.256;2022-11-25T13:48:24;97337.38;;;7.52;100.00
12178;BME280;6152;48.728;9.256;2022-11-25T13:53:40;97341.06;;;7.66;100.00
12178;BME280;6152;48.728;9.256;2022-11-25T13:56:30;97345.63;;;7.79;100.00
12178;BME280;6152;48.728;9.256;2022-11-25T14:01:37;97354.03;;;8.03;100.00
12178;BME280;6152;48.728;9.256;2022-11-25T14:04:07;97356.56;;;8.04;100.00
12178;BME280;6152;48.728;9.256;2022-11-25T14:09:04;97365.22;;;8.03;100.00
12178;BME280;6152;48.728;9.256;2022-11-25T14:23:39;97373.84;;;8.04;100.00
12178;BME280;6152;48.728;9.256;2022-11-25T14:26:14;97382.91;;;7.95;100.00
12178;BME280;6152;48.728;9.256;2022-11-25T14:29:08;97378.97;;;7.87;100.00
12178;BME280;6152;48.728;9.256;2022-11-25T14:31:43;97383.69;;;7.79;100.00
12178;BME280;6152;48.728;9.256;2022-11-25T14:34:32;97388.75;;;7.80;100.00
12178;BME280;6152;48.728;9.256;2022-11-25T14:37:47;97390.38;;;7.83;100.00
12178;BME280;6152;48.728;9.256;2022-11-25T14:40:30;97391.72;;;7.91;100.00
12178;BME280;6152;48.728;9.256;2022-11-25T14:43:04;97389.06;;;7.93;100.00
12178;BME280;6152;48.728;9.256;2022-11-25T14:45:33;97401.94;;;7.94;100.00
12178;BME280;6152;48.728;9.256;2022-11-25T14:48:19;97403.78;;;7.92;100.00
12178;BME280;6152;48.728;9.256;2022-11-25T14:50:55;97411.59;;;7.91;100.00
12178;BME280;6152;48.728;9.256;2022-11-25T14:53:22;97413.44;;;7.89;100.00
12178;BME280;6152;48.728;9.256;2022-11-25T14:55:48;97418.69;;;7.87;100.00
12178;BME280;6152;48.728;9.256;2022-11-25T14:58:15;97420.50;;;7.85;100.00
12178;BME280;6152;48.728;9.256;2022-11-25T15:01:00;97422.25;;;7.85;100.00
12178;BME280;6152;48.728;9.256;2022-11-25T15:03:29;97416.97;;;7.86;100.00
12178;BME280;6152;48.728;9.256;2022-11-25T15:06:00;97427.28;;;7.88;100.00
12178;BME280;6152;48.728;9.256;2022-11-25T15:08:27;97430.88;;;7.85;100.00
12178;BME280;6152;48.728;9.256;2022-11-25T15:11:06;97435.50;;;7.79;100.00
12178;BME280;6152;48.728;9.256;2022-11-25T15:13:44;97434.41;;;7.83;100.00
12178;BME280;6152;48.728;9.256;2022-11-25T15:16:22;97437.28;;;7.77;100.00
12178;BME280;6152;48.728;9.256;2022-11-25T15:18:52;97446.88;;;7.75;100.00
12178;BME280;6152;48.728;9.256;2022-11-25T15:21:32;97447.78;;;7.74;100.00
12178;BME280;6152;48.728;9.256;2022-11-25T15:23:59;97448.81;;;7.70;100.00